sensor_id;sensor_type;location;lat;lon;timestamp;pressure;altitude;pressure_sealevel;temperature;humidity
49461;BME280;35355;49.198;-0.368;2024-01-30T00:02:09;101950.38;;;11.85;75.49
49461;BME280;35355;49.198;-0.368;2024-01-30T00:04:34;101949.56;;;11.84;75.34
49461;BME280;35355;49.198;-0.368;2024-01-30T00:06:59;101952.28;;;11.84;75.24
49461;BME280;35355;49.198;-0.368;2024-01-30T00:09:26;101952.53;;;11.83;75.57
49461;BME280;35355;49.198;-0.368;2024-01-30T00:11:51;101956.09;;;11.83;75.44
49461;BME280;35355;49.198;-0.368;2024-01-30T00:14:16;101955.28;;;11.83;75.61
49461;BME280;35355;49.198;-0.368;2024-01-30T00:16:42;101960.75;;;11.83;75.45
49461;BME280;35355;49.198;-0.368;2024-01-30T00:19:07;101960.75;;;11.83;75.63
49461;BME280;35355;49.198;-0.368;2024-01-30T00:21:33;101961.81;;;11.82;75.82
49461;BME280;35355;49.198;-0.368;2024-01-30T00:23:58;101962.88;;;11.81;75.94
49461;BME280;35355;49.198;-0.368;2024-01-30T00:26:24;101963.72;;;11.81;75.44
49461;BME280;35355;49.198;-0.368;2024-01-30T00:28:49;101962.88;;;11.81;75.85
49461;BME280;35355;49.198;-0.368;2024-01-30T00:31:14;101957.41;;;11.81;75.88
49461;BME280;35355;49.198;-0.368;2024-01-30T00:33:40;101957.16;;;11.82;75.77
49461;BME280;35355;49.198;-0.368;2024-01-30T00:36:08;101959.88;;;11.82;75.71
49461;BME280;35355;49.198;-0.368;2024-01-30T00:38:34;101964.31;;;11.83;75.42
49461;BME280;35355;49.198;-0.368;2024-01-30T00:40:59;101962.38;;;11.84;76.08
49461;BME280;35355;49.198;-0.368;2024-01-30T00:43:25;101967.03;;;11.83;75.66
49461;BME280;35355;49.198;-0.368;2024-01-30T00:45:51;101963.25;;;11.84;75.89
49461;BME280;35355;49.198;-0.368;2024-01-30T00:48:18;101962.38;;;11.84;75.90
49461;BME280;35355;49.198;-0.368;2024-01-30T00:50:43;101964.31;;;11.83;76.04
49461;BME280;35355;49.198;-0.368;2024-01-30T00:53:08;101971.69;;;11.83;76.08
49461;BME280;35355;49.198;-0.368;2024-01-30T00:55:34;101963.72;;;11.81;75.69
49461;BME280;35355;49.198;-0.368;2024-01-30T00:57:59;101967.75;;;11.79;76.08
49461;BME280;35355;49.198;-0.368;2024-01-30T01:00:24;101969.69;;;11.78;75.94
49461;BME280;35355;49.198;-0.368;2024-01-30T01:02:57;101968.81;;;11.77;76.19
49461;BME280;35355;49.198;-0.368;2024-01-30T01:05:22;101965.03;;;11.79;76.12
49461;BME280;35355;49.198;-0.368;2024-01-30T01:07:47;101961.22;;;11.80;76.08
49461;BME280;35355;49.198;-0.368;2024-01-30T01:10:14;101961.22;;;11.80;76.30
49461;BME280;35355;49.198;-0.368;2024-01-30T01:12:39;101967.75;;;11.79;76.25
49461;BME280;35355;49.198;-0.368;2024-01-30T01:15:05;101967.75;;;11.79;76.08
49461;BME280;35355;49.198;-0.368;2024-01-30T01:17:34;101975.16;;;11.78;76.22
49461;BME280;35355;49.198;-0.368;2024-01-30T01:20:02;101974.06;;;11.79;76.29
49461;BME280;35355;49.198;-0.368;2024-01-30T01:22:28;101983.13;;;11.80;76.39
49461;BME280;35355;49.198;-0.368;2024-01-30T01:24:53;101980.97;;;11.82;76.43
49461;BME280;35355;49.198;-0.368;2024-01-30T01:27:18;101975.25;;;11.83;76.53
49461;BME280;35355;49.198;-0.368;2024-01-30T01:29:44;101982.16;;;11.86;76.20
49461;BME280;35355;49.198;-0.368;2024-01-30T01:32:10;101976.44;;;11.87;76.19
49461;BME280;35355;49.198;-0.368;2024-01-30T01:34:36;101975.34;;;11.88;76.08
49461;BME280;35355;49.198;-0.368;2024-01-30T01:37:01;101982.25;;;11.91;76.46
49461;BME280;35355;49.198;-0.368;2024-01-30T01:39:27;101985.22;;;11.89;76.28
49461;BME280;35355;49.198;-0.368;2024-01-30T01:41:52;101992.94;;;11.92;76.24
49461;BME280;35355;49.198;-0.368;2024-01-30T01:44:18;101985.63;;;11.93;76.31
49461;BME280;35355;49.198;-0.368;2024-01-30T01:46:43;101987.03;;;11.96;76.13
49461;BME280;35355;49.198;-0.368;2024-01-30T01:49:09;102008.91;;;11.96;76.67
49461;BME280;35355;49.198;-0.368;2024-01-30T01:51:36;102013.56;;;11.95;76.09
49461;BME280;35355;49.198;-0.368;2024-01-30T01:54:04;102010.59;;;11.97;76.16
49461;BME280;35355;49.198;-0.368;2024-01-30T01:56:34;102019.63;;;11.97;76.08
49461;BME280;35355;49.198;-0.368;2024-01-30T01:59:01;102001.31;;;11.98;76.45
49461;BME280;35355;49.198;-0.368;2024-01-30T02:01:31;102000.47;;;11.97;76.23
49461;BME280;35355;49.198;-0.368;2024-01-30T02:03:58;102000.47;;;11.97;76.76
49461;BME280;35355;49.198;-0.368;2024-01-30T02:06:24;101996.66;;;11.98;76.44
49461;BME280;35355;49.198;-0.368;2024-01-30T02:08:49;102000.47;;;11.97;76.46
49461;BME280;35355;49.198;-0.368;2024-01-30T02:11:15;102009.28;;;11.99;76.32
49461;BME280;35355;49.198;-0.368;2024-01-30T02:13:41;102006.78;;;11.98;76.46
49461;BME280;35355;49.198;-0.368;2024-01-30T02:16:07;102007.59;;;11.98;76.36
49461;BME280;35355;49.198;-0.368;2024-01-30T02:18:32;102009.28;;;11.99;76.44
49461;BME280;35355;49.198;-0.368;2024-01-30T02:20:59;102011.41;;;11.97;76.64
49461;BME280;35355;49.198;-0.368;2024-01-30T02:23:30;102016.06;;;11.97;76.79
49461;BME280;35355;49.198;-0.368;2024-01-30T02:25:55;102019.84;;;11.96;76.46
49461;BME280;35355;49.198;-0.368;2024-01-30T02:28:21;102012.97;;;11.93;76.47
49461;BME280;35355;49.198;-0.368;2024-01-30T02:30:46;102022.22;;;11.92;76.50
49461;BME280;35355;49.198;-0.368;2024-01-30T02:33:12;102016.16;;;11.90;76.55
49461;BME280;35355;49.198;-0.368;2024-01-30T02:35:38;102015.56;;;11.88;76.60
49461;BME280;35355;49.198;-0.368;2024-01-30T02:38:04;102014.97;;;11.86;76.85
49461;BME280;35355;49.198;-0.368;2024-01-30T02:40:30;102020.44;;;11.86;77.14
49461;BME280;35355;49.198;-0.368;2024-01-30T02:42:56;102019.34;;;11.87;77.10
49461;BME280;35355;49.198;-0.368;2024-01-30T02:45:21;102015.81;;;11.86;77.44
49461;BME280;35355;49.198;-0.368;2024-01-30T02:47:47;102012.81;;;11.88;77.31
49461;BME280;35355;49.198;-0.368;2024-01-30T02:50:12;102017.22;;;11.89;77.41
49461;BME280;35355;49.198;-0.368;2024-01-30T02:52:38;102016.63;;;11.87;77.28
49461;BME280;35355;49.198;-0.368;2024-01-30T02:55:04;102013.44;;;11.90;77.39
49461;BME280;35355;49.198;-0.368;2024-01-30T02:57:29;102023.28;;;11.91;77.40
49461;BME280;35355;49.198;-0.368;2024-01-30T02:59:54;102017.81;;;11.91;77.46
49461;BME280;35355;49.198;-0.368;2024-01-30T03:02:20;102011.88;;;11.94;77.47
49461;BME280;35355;49.198;-0.368;2024-01-30T03:04:45;102029.97;;;11.95;77.34
49461;BME280;35355;49.198;-0.368;2024-01-30T03:07:10;102024.97;;;11.92;77.31
49461;BME280;35355;49.198;-0.368;2024-01-30T03:09:37;102034.13;;;11.86;76.81
49461;BME280;35355;49.198;-0.368;2024-01-30T03:12:03;102048.38;;;11.76;76.65
49461;BME280;35355;49.198;-0.368;2024-01-30T03:14:31;102048.16;;;11.66;76.52
49461;BME280;35355;49.198;-0.368;2024-01-30T03:16:56;102045.78;;;11.57;76.67
49461;BME280;35355;49.198;-0.368;2024-01-30T03:19:21;102043.38;;;11.49;76.25
49461;BME280;35355;49.198;-0.368;2024-01-30T03:21:47;102047.88;;;11.44;76.70
49461;BME280;35355;49.198;-0.368;2024-01-30T03:24:12;102049.53;;;11.33;76.61
49461;BME280;35355;49.198;-0.368;2024-01-30T03:26:37;102060.09;;;11.29;76.12
49461;BME280;35355;49.198;-0.368;2024-01-30T03:29:03;102063.75;;;11.23;76.48
49461;BME280;35355;49.198;-0.368;2024-01-30T03:31:28;102076.22;;;11.19;76.13
49461;BME280;35355;49.198;-0.368;2024-01-30T03:33:53;102073.59;;;11.12;76.22
49461;BME280;35355;49.198;-0.368;2024-01-30T03:36:19;102087.72;;;11.09;76.35
49461;BME280;35355;49.198;-0.368;2024-01-30T03:38:44;102084.38;;;11.07;76.32
49461;BME280;35355;49.198;-0.368;2024-01-30T03:41:10;102077.97;;;11.01;76.12
49461;BME280;35355;49.198;-0.368;2024-01-30T03:43:36;102075.25;;;11.01;76.04
49461;BME280;35355;49.198;-0.368;2024-01-30T03:46:02;102079.03;;;11.00;76.43
49461;BME280;35355;49.198;-0.368;2024-01-30T03:48:28;102087.47;;;10.99;76.54
49461;BME280;35355;49.198;-0.368;2024-01-30T03:50:54;102094.78;;;10.98;76.01
49461;BME280;35355;49.198;-0.368;2024-01-30T03:53:19;102087.69;;;10.97;76.24
49461;BME280;35355;49.198;-0.368;2024-01-30T03:55:45;102091.72;;;10.95;76.23
49461;BME280;35355;49.198;-0.368;2024-01-30T03:58:10;102090.25;;;10.92;75.70
49461;BME280;35355;49.198;-0.368;2024-01-30T04:00:35;102090.97;;;10.87;75.90
49461;BME280;35355;49.198;-0.368;2024-01-30T04:03:01;102099.84;;;10.83;75.79
49461;BME280;35355;49.198;-0.368;2024-01-30T04:05:26;102110.66;;;10.78;75.60
49461;BME280;35355;49.198;-0.368;2024-01-30T04:07:51;102106.69;;;10.74;75.64
49461;BME280;35355;49.198;-0.368;2024-01-30T04:10:17;102117.22;;;10.70;75.36
49461;BME280;35355;49.198;-0.368;2024-01-30T04:12:42;102124.00;;;10.67;75.67
49461;BME280;35355;49.198;-0.368;2024-01-30T04:15:08;102123.38;;;10.65;75.28
49461;BME280;35355;49.198;-0.368;2024-01-30T04:17:33;102123.59;;;10.64;75.22
49461;BME280;35355;49.198;-0.368;2024-01-30T04:19:59;102117.78;;;10.60;75.11
49461;BME280;35355;49.198;-0.368;2024-01-30T04:22:24;102118.84;;;10.59;75.31
49461;BME280;35355;49.198;-0.368;2024-01-30T04:24:49;102118.00;;;10.59;75.35
49461;BME280;35355;49.198;-0.368;2024-01-30T04:27:15;102118.25;;;10.57;75.24
49461;BME280;35355;49.198;-0.368;2024-01-30T04:29:40;102114.66;;;10.57;75.44
49461;BME280;35355;49.198;-0.368;2024-01-30T04:32:06;102123.69;;;10.57;75.33
49461;BME280;35355;49.198;-0.368;2024-01-30T04:34:31;102118.69;;;10.54;74.82
49461;BME280;35355;49.198;-0.368;2024-01-30T04:36:56;102115.34;;;10.52;75.00
49461;BME280;35355;49.198;-0.368;2024-01-30T04:39:22;102131.72;;;10.52;75.19
49461;BME280;35355;49.198;-0.368;2024-01-30T04:41:47;102117.84;;;10.53;74.91
49461;BME280;35355;49.198;-0.368;2024-01-30T04:44:13;102119.75;;;10.53;74.78
49461;BME280;35355;49.198;-0.368;2024-01-30T04:46:39;102127.94;;;10.53;74.74
49461;BME280;35355;49.198;-0.368;2024-01-30T04:49:04;102114.97;;;10.48;74.65
49461;BME280;35355;49.198;-0.368;2024-01-30T04:51:29;102129.63;;;10.54;74.94
49461;BME280;35355;49.198;-0.368;2024-01-30T04:53:55;102128.75;;;10.53;75.10
49461;BME280;35355;49.198;-0.368;2024-01-30T04:56:20;102138.41;;;10.56;74.92
49461;BME280;35355;49.198;-0.368;2024-01-30T04:58:45;102145.53;;;10.57;74.84
49461;BME280;35355;49.198;-0.368;2024-01-30T05:01:15;102151.59;;;10.59;74.68
49461;BME280;35355;49.198;-0.368;2024-01-30T05:03:41;102146.72;;;10.61;74.85
49461;BME280;35355;49.198;-0.368;2024-01-30T05:06:06;102156.59;;;10.62;74.67
49461;BME280;35355;49.198;-0.368;2024-01-30T05:08:32;102163.13;;;10.61;74.42
49461;BME280;35355;49.198;-0.368;2024-01-30T05:11:00;102171.53;;;10.60;74.59
49461;BME280;35355;49.198;-0.368;2024-01-30T05:13:25;102161.28;;;10.55;74.52
49461;BME280;35355;49.198;-0.368;2024-01-30T05:15:51;102165.94;;;10.55;74.32
49461;BME280;35355;49.198;-0.368;2024-01-30T05:18:16;102184.66;;;10.51;74.19
49461;BME280;35355;49.198;-0.368;2024-01-30T05:20:41;102180.28;;;10.50;74.37
49461;BME280;35355;49.198;-0.368;2024-01-30T05:23:07;102189.97;;;10.46;74.17
49461;BME280;35355;49.198;-0.368;2024-01-30T05:25:32;102192.09;;;10.44;73.90
49461;BME280;35355;49.198;-0.368;2024-01-30T05:27:57;102197.38;;;10.39;73.76
49461;BME280;35355;49.198;-0.368;2024-01-30T05:30:22;102196.78;;;10.37;73.92
49461;BME280;35355;49.198;-0.368;2024-01-30T05:32:48;102188.16;;;10.33;73.58
49461;BME280;35355;49.198;-0.368;2024-01-30T05:35:14;102197.84;;;10.29;73.65
49461;BME280;35355;49.198;-0.368;2024-01-30T05:37:40;102194.28;;;10.28;73.32
49461;BME280;35355;49.198;-0.368;2024-01-30T05:40:05;102205.66;;;10.25;73.60
49461;BME280;35355;49.198;-0.368;2024-01-30T05:42:31;102213.25;;;10.23;73.27
49461;BME280;35355;49.198;-0.368;2024-01-30T05:44:56;102211.78;;;10.21;73.32
49461;BME280;35355;49.198;-0.368;2024-01-30T05:47:22;102214.75;;;10.19;73.30
49461;BME280;35355;49.198;-0.368;2024-01-30T05:49:47;102216.00;;;10.16;73.31
49461;BME280;35355;49.198;-0.368;2024-01-30T05:52:13;102213.72;;;10.13;72.90
49461;BME280;35355;49.198;-0.368;2024-01-30T05:54:38;102218.59;;;10.11;72.81
49461;BME280;35355;49.198;-0.368;2024-01-30T05:57:04;102213.78;;;10.07;73.23
49461;BME280;35355;49.198;-0.368;2024-01-30T05:59:29;102221.34;;;10.05;73.14
49461;BME280;35355;49.198;-0.368;2024-01-30T06:01:54;102224.53;;;10.01;73.12
49461;BME280;35355;49.198;-0.368;2024-01-30T06:04:20;102227.94;;;9.97;72.86
49461;BME280;35355;49.198;-0.368;2024-01-30T06:06:45;102235.47;;;9.95;72.76
49461;BME280;35355;49.198;-0.368;2024-01-30T06:09:10;102232.38;;;9.91;72.36
49461;BME280;35355;49.198;-0.368;2024-01-30T06:11:38;102237.81;;;9.91;72.50
49461;BME280;35355;49.198;-0.368;2024-01-30T06:14:03;102237.22;;;9.89;72.45
49461;BME280;35355;49.198;-0.368;2024-01-30T06:16:28;102242.66;;;9.89;72.67
49461;BME280;35355;49.198;-0.368;2024-01-30T06:18:55;102242.91;;;9.88;72.38
49461;BME280;35355;49.198;-0.368;2024-01-30T06:21:21;102249.19;;;9.88;72.20
49461;BME280;35355;49.198;-0.368;2024-01-30T06:23:46;102250.22;;;9.87;72.49
49461;BME280;35355;49.198;-0.368;2024-01-30T06:26:11;102246.44;;;9.88;72.32
49461;BME280;35355;49.198;-0.368;2024-01-30T06:28:37;102251.91;;;9.88;72.51
49461;BME280;35355;49.198;-0.368;2024-01-30T06:31:02;102256.31;;;9.89;72.50
49461;BME280;35355;49.198;-0.368;2024-01-30T06:33:27;102259.88;;;9.90;72.34
49461;BME280;35355;49.198;-0.368;2024-01-30T06:35:53;102259.63;;;9.91;72.25
49461;BME280;35355;49.198;-0.368;2024-01-30T06:38:18;102257.75;;;9.92;72.43
49461;BME280;35355;49.198;-0.368;2024-01-30T06:40:44;102270.09;;;9.94;72.21
49461;BME280;35355;49.198;-0.368;2024-01-30T06:43:09;102268.22;;;9.95;72.20
49461;BME280;35355;49.198;-0.368;2024-01-30T06:45:35;102266.72;;;9.99;72.43
49461;BME280;35355;49.198;-0.368;2024-01-30T06:48:00;102272.81;;;10.01;72.06
49461;BME280;35355;49.198;-0.368;2024-01-30T06:50:26;102275.31;;;10.03;72.23
49461;BME280;35355;49.198;-0.368;2024-01-30T06:52:51;102279.09;;;10.01;72.17
49461;BME280;35355;49.198;-0.368;2024-01-30T06:55:18;102282.88;;;10.00;72.00
49461;BME280;35355;49.198;-0.368;2024-01-30T06:57:43;102283.31;;;9.97;72.07
49461;BME280;35355;49.198;-0.368;2024-01-30T07:00:09;102282.91;;;9.94;71.83
49461;BME280;35355;49.198;-0.368;2024-01-30T07:02:34;102289.25;;;9.88;71.96
49461;BME280;35355;49.198;-0.368;2024-01-30T07:04:59;102290.53;;;9.85;71.92
49461;BME280;35355;49.198;-0.368;2024-01-30T07:07:25;102297.47;;;9.81;71.94
49461;BME280;35355;49.198;-0.368;2024-01-30T07:09:50;102298.50;;;9.80;72.24
49461;BME280;35355;49.198;-0.368;2024-01-30T07:12:20;102291.41;;;9.79;71.90
49461;BME280;35355;49.198;-0.368;2024-01-30T07:14:46;102288.91;;;9.77;72.58
49461;BME280;35355;49.198;-0.368;2024-01-30T07:17:11;102300.63;;;9.78;72.33
49461;BME280;35355;49.198;-0.368;2024-01-30T07:19:36;102306.53;;;9.75;72.30
49461;BME280;35355;49.198;-0.368;2024-01-30T07:22:02;102302.94;;;9.74;72.02
49461;BME280;35355;49.198;-0.368;2024-01-30T07:24:27;102305.72;;;9.68;72.10
49461;BME280;35355;49.198;-0.368;2024-01-30T07:26:52;102318.31;;;9.62;71.97
49461;BME280;35355;49.198;-0.368;2024-01-30T07:29:18;102321.69;;;9.57;72.09
49461;BME280;35355;49.198;-0.368;2024-01-30T07:31:43;102324.22;;;9.52;72.26
49461;BME280;35355;49.198;-0.368;2024-01-30T07:34:09;102330.09;;;9.49;72.20
49461;BME280;35355;49.198;-0.368;2024-01-30T07:36:34;102331.19;;;9.48;72.44
49461;BME280;35355;49.198;-0.368;2024-01-30T07:38:59;102330.09;;;9.49;72.59
49461;BME280;35355;49.198;-0.368;2024-01-30T07:41:25;102317.97;;;9.45;72.89
49461;BME280;35355;49.198;-0.368;2024-01-30T07:43:50;102332.59;;;9.51;72.90
49461;BME280;35355;49.198;-0.368;2024-01-30T07:46:16;102335.13;;;9.52;72.99
49461;BME280;35355;49.198;-0.368;2024-01-30T07:48:41;102342.25;;;9.53;73.26
49461;BME280;35355;49.198;-0.368;2024-01-30T07:51:06;102347.50;;;9.55;73.35
49461;BME280;35355;49.198;-0.368;2024-01-30T07:53:32;102346.22;;;9.57;72.73
49461;BME280;35355;49.198;-0.368;2024-01-30T07:55:57;102352.72;;;9.56;72.79
49461;BME280;35355;49.198;-0.368;2024-01-30T07:58:22;102358.59;;;9.53;72.71
49461;BME280;35355;49.198;-0.368;2024-01-30T08:00:49;102357.34;;;9.49;73.24
49461;BME280;35355;49.198;-0.368;2024-01-30T08:03:14;102363.88;;;9.48;73.46
49461;BME280;35355;49.198;-0.368;2024-01-30T08:05:41;102364.72;;;9.48;73.37
49461;BME280;35355;49.198;-0.368;2024-01-30T08:08:07;102365.53;;;9.49;73.24
49461;BME280;35355;49.198;-0.368;2024-01-30T08:10:32;102367.00;;;9.52;73.26
49461;BME280;35355;49.198;-0.368;2024-01-30T08:12:58;102380.41;;;9.53;73.43
49461;BME280;35355;49.198;-0.368;2024-01-30T08:15:23;102384.63;;;9.56;73.23
49461;BME280;35355;49.198;-0.368;2024-01-30T08:17:48;102390.69;;;9.58;73.60
49461;BME280;35355;49.198;-0.368;2024-01-30T08:20:14;102387.31;;;9.62;73.17
49461;BME280;35355;49.198;-0.368;2024-01-30T08:22:40;102395.91;;;9.66;73.54
49461;BME280;35355;49.198;-0.368;2024-01-30T08:25:08;102392.53;;;9.71;73.40
49461;BME280;35355;49.198;-0.368;2024-01-30T08:27:35;102405.50;;;9.75;73.29
49461;BME280;35355;49.198;-0.368;2024-01-30T08:30:02;102396.94;;;9.72;73.31
49461;BME280;35355;49.198;-0.368;2024-01-30T08:32:28;102408.66;;;9.79;73.62
49461;BME280;35355;49.198;-0.368;2024-01-30T08:34:53;102410.53;;;9.78;73.34
49461;BME280;35355;49.198;-0.368;2024-01-30T08:37:18;102412.44;;;9.78;73.47
49461;BME280;35355;49.198;-0.368;2024-01-30T08:39:44;102422.72;;;9.76;73.48
49461;BME280;35355;49.198;-0.368;2024-01-30T08:42:09;102414.75;;;9.74;73.47
49461;BME280;35355;49.198;-0.368;2024-01-30T08:44:35;102417.69;;;9.73;73.18
49461;BME280;35355;49.198;-0.368;2024-01-30T08:47:00;102424.81;;;9.74;73.71
49461;BME280;35355;49.198;-0.368;2024-01-30T08:49:26;102427.31;;;9.82;73.86
49461;BME280;35355;49.198;-0.368;2024-01-30T08:51:51;102420.56;;;9.91;73.37
49461;BME280;35355;49.198;-0.368;2024-01-30T08:54:17;102431.84;;;10.01;73.62
49461;BME280;35355;49.198;-0.368;2024-01-30T08:56:42;102433.06;;;10.12;74.03
49461;BME280;35355;49.198;-0.368;2024-01-30T08:59:08;102441.84;;;10.21;73.75
49461;BME280;35355;49.198;-0.368;2024-01-30T09:01:33;102438.06;;;10.22;73.25
49461;BME280;35355;49.198;-0.368;2024-01-30T09:03:59;102443.47;;;10.29;73.43
49461;BME280;35355;49.198;-0.368;2024-01-30T09:06:24;102442.88;;;10.33;73.72
49461;BME280;35355;49.198;-0.368;2024-01-30T09:08:51;102448.94;;;10.35;73.69
49461;BME280;35355;49.198;-0.368;2024-01-30T09:11:18;102452.91;;;10.40;73.35
49461;BME280;35355;49.198;-0.368;2024-01-30T09:13:43;102459.63;;;10.44;73.46
49461;BME280;35355;49.198;-0.368;2024-01-30T09:16:09;102461.06;;;10.46;73.42
49461;BME280;35355;49.198;-0.368;2024-01-30T09:18:34;102451.81;;;10.47;73.38
49461;BME280;35355;49.198;-0.368;2024-01-30T09:20:59;102452.63;;;10.55;73.20
49461;BME280;35355;49.198;-0.368;2024-01-30T09:23:27;102455.94;;;10.57;73.39
49461;BME280;35355;49.198;-0.368;2024-01-30T09:25:52;102458.47;;;10.58;73.10
49461;BME280;35355;49.198;-0.368;2024-01-30T09:28:17;102459.94;;;10.61;73.38
49461;BME280;35355;49.198;-0.368;2024-01-30T09:30:43;102464.56;;;10.60;72.74
49461;BME280;35355;49.198;-0.368;2024-01-30T09:33:08;102466.00;;;10.63;73.40
49461;BME280;35355;49.198;-0.368;2024-01-30T09:35:34;102465.59;;;10.66;73.30
49461;BME280;35355;49.198;-0.368;2024-01-30T09:37:59;102468.69;;;10.69;73.19
49461;BME280;35355;49.198;-0.368;2024-01-30T09:40:25;102476.44;;;10.73;73.15
49461;BME280;35355;49.198;-0.368;2024-01-30T09:42:51;102475.56;;;10.79;72.38
49461;BME280;35355;49.198;-0.368;2024-01-30T09:45:21;102480.56;;;10.82;72.62
49461;BME280;35355;49.198;-0.368;2024-01-30T09:47:48;102483.06;;;10.90;72.72
49461;BME280;35355;49.198;-0.368;2024-01-30T09:50:14;102481.13;;;10.97;72.58
49461;BME280;35355;49.198;-0.368;2024-01-30T09:52:40;102490.31;;;11.03;72.50
49461;BME280;35355;49.198;-0.368;2024-01-30T09:55:07;102489.22;;;11.11;72.46
49461;BME280;35355;49.198;-0.368;2024-01-30T09:57:33;102491.88;;;11.17;72.33
49461;BME280;35355;49.198;-0.368;2024-01-30T09:59:58;102498.75;;;11.27;72.77
49461;BME280;35355;49.198;-0.368;2024-01-30T10:02:24;102494.91;;;11.34;72.09
49461;BME280;35355;49.198;-0.368;2024-01-30T10:04:50;102497.34;;;11.43;72.30
49461;BME280;35355;49.198;-0.368;2024-01-30T10:07:17;102499.44;;;11.47;71.80
49461;BME280;35355;49.198;-0.368;2024-01-30T10:09:42;102504.22;;;11.52;71.78
49461;BME280;35355;49.198;-0.368;2024-01-30T10:12:09;102511.34;;;11.53;71.28
49461;BME280;35355;49.198;-0.368;2024-01-30T10:14:38;102509.69;;;11.52;71.36
49461;BME280;35355;49.198;-0.368;2024-01-30T10:17:03;102506.94;;;11.52;71.35
49461;BME280;35355;49.198;-0.368;2024-01-30T10:19:31;102512.41;;;11.52;71.05
49461;BME280;35355;49.198;-0.368;2024-01-30T10:21:56;102515.97;;;11.52;70.79
49461;BME280;35355;49.198;-0.368;2024-01-30T10:24:25;102525.00;;;11.53;71.08
49461;BME280;35355;49.198;-0.368;2024-01-30T10:26:51;102519.38;;;11.48;70.73
49461;BME280;35355;49.198;-0.368;2024-01-30T10:29:17;102528.03;;;11.45;70.55
49461;BME280;35355;49.198;-0.368;2024-01-30T10:31:42;102517.16;;;11.38;70.85
49461;BME280;35355;49.198;-0.368;2024-01-30T10:34:07;102532.47;;;11.46;70.76
49461;BME280;35355;49.198;-0.368;2024-01-30T10:36:36;102527.81;;;11.46;70.43
49461;BME280;35355;49.198;-0.368;2024-01-30T10:39:06;102541.03;;;11.49;70.43
49461;BME280;35355;49.198;-0.368;2024-01-30T10:41:40;102534.75;;;11.49;70.57
49461;BME280;35355;49.198;-0.368;2024-01-30T10:44:09;102548.19;;;11.50;70.20
49461;BME280;35355;49.198;-0.368;2024-01-30T10:46:35;102548.41;;;11.49;70.63
49461;BME280;35355;49.198;-0.368;2024-01-30T10:49:03;102542.31;;;11.47;70.24
49461;BME280;35355;49.198;-0.368;2024-01-30T10:51:29;102546.56;;;11.43;69.93
49461;BME280;35355;49.198;-0.368;2024-01-30T10:53:56;102546.56;;;11.43;70.45
49461;BME280;35355;49.198;-0.368;2024-01-30T10:56:22;102540.66;;;11.46;70.37
49461;BME280;35355;49.198;-0.368;2024-01-30T10:58:52;102544.00;;;11.48;70.04
49461;BME280;35355;49.198;-0.368;2024-01-30T11:01:19;102541.03;;;11.49;70.21
49461;BME280;35355;49.198;-0.368;2024-01-30T11:03:50;102552.34;;;11.53;70.05
49461;BME280;35355;49.198;-0.368;2024-01-30T11:06:16;102556.56;;;11.55;69.65
49461;BME280;35355;49.198;-0.368;2024-01-30T11:08:45;102558.22;;;11.56;69.91
49461;BME280;35355;49.198;-0.368;2024-01-30T11:11:11;102549.81;;;11.58;69.39
49461;BME280;35355;49.198;-0.368;2024-01-30T11:13:36;102551.03;;;11.62;69.74
49461;BME280;35355;49.198;-0.368;2024-01-30T11:16:03;102557.88;;;11.71;69.81
49461;BME280;35355;49.198;-0.368;2024-01-30T11:18:30;102563.09;;;11.80;69.24
49461;BME280;35355;49.198;-0.368;2024-01-30T11:20:59;102555.25;;;11.83;69.27
49461;BME280;35355;49.198;-0.368;2024-01-30T11:23:26;102565.13;;;11.84;68.90
49461;BME280;35355;49.198;-0.368;2024-01-30T11:25:52;102555.84;;;11.85;68.82
49461;BME280;35355;49.198;-0.368;2024-01-30T11:28:18;102569.31;;;11.87;68.82
49461;BME280;35355;49.198;-0.368;2024-01-30T11:30:43;102559.22;;;11.87;68.23
49461;BME280;35355;49.198;-0.368;2024-01-30T11:33:11;102553.50;;;11.89;67.81
49461;BME280;35355;49.198;-0.368;2024-01-30T11:35:40;102554.13;;;11.91;67.54
49461;BME280;35355;49.198;-0.368;2024-01-30T11:38:08;102561.28;;;11.92;67.54
49461;BME280;35355;49.198;-0.368;2024-01-30T11:40:35;102555.97;;;11.97;67.16
49461;BME280;35355;49.198;-0.368;2024-01-30T11:43:02;102558.72;;;11.97;67.19
49461;BME280;35355;49.198;-0.368;2024-01-30T11:45:28;102565.41;;;12.01;67.06
49461;BME280;35355;49.198;-0.368;2024-01-30T11:47:54;102563.53;;;12.02;66.96
49461;BME280;35355;49.198;-0.368;2024-01-30T11:50:20;102560.56;;;12.03;66.44
49461;BME280;35355;49.198;-0.368;2024-01-30T11:52:46;102556.16;;;12.02;66.47
49461;BME280;35355;49.198;-0.368;2024-01-30T11:55:12;102560.34;;;12.05;66.44
49461;BME280;35355;49.198;-0.368;2024-01-30T11:57:38;102552.50;;;12.08;66.18
49461;BME280;35355;49.198;-0.368;2024-01-30T12:00:06;102553.94;;;12.11;66.26
49461;BME280;35355;49.198;-0.368;2024-01-30T12:02:42;102554.78;;;12.11;66.32
49461;BME280;35355;49.198;-0.368;2024-01-30T12:05:08;102558.38;;;12.12;65.65
49461;BME280;35355;49.198;-0.368;2024-01-30T12:07:34;102554.19;;;12.09;65.04
49461;BME280;35355;49.198;-0.368;2024-01-30T12:10:00;102547.72;;;12.04;65.46
49461;BME280;35355;49.198;-0.368;2024-01-30T12:12:26;102551.34;;;11.98;64.48
49461;BME280;35355;49.198;-0.368;2024-01-30T12:14:52;102553.88;;;11.92;64.70
49461;BME280;35355;49.198;-0.368;2024-01-30T12:17:34;102553.97;;;11.86;65.11
49461;BME280;35355;49.198;-0.368;2024-01-30T12:22:35;102553.41;;;11.77;64.50
49461;BME280;35355;49.198;-0.368;2024-01-30T12:25:01;102551.97;;;11.74;64.53
49461;BME280;35355;49.198;-0.368;2024-01-30T12:27:26;102551.38;;;11.72;64.80
49461;BME280;35355;49.198;-0.368;2024-01-30T12:29:58;102554.31;;;11.71;65.12
49461;BME280;35355;49.198;-0.368;2024-01-30T12:32:24;102556.44;;;11.69;64.91
49461;BME280;35355;49.198;-0.368;2024-01-30T12:34:49;102555.00;;;11.66;65.05
49461;BME280;35355;49.198;-0.368;2024-01-30T12:37:15;102555.88;;;11.60;64.80
49461;BME280;35355;49.198;-0.368;2024-01-30T12:39:45;102554.88;;;11.54;64.75